sensor_id;sensor_type;location;lat;lon;timestamp;pressure;altitude;pressure_sealevel;temperature;humidity
57763;BME280;43592;42.524;12.052;2023-04-28T00:00:24;97138.56;;;6.50;100.00
57763;BME280;43592;42.524;12.052;2023-04-28T00:02:49;97132.16;;;6.51;100.00
57763;BME280;43592;42.524;12.052;2023-04-28T00:05:16;97122.59;;;6.50;100.00
57763;BME280;43592;42.524;12.052;2023-04-28T00:07:42;97126.63;;;6.48;100.00
57763;BME280;43592;42.524;12.052;2023-04-28T00:10:07;97123.50;;;6.46;100.00
57763;BME280;43592;42.524;12.052;2023-04-28T00:12:33;97125.50;;;6.40;100.00
57763;BME280;43592;42.524;12.052;2023-04-28T00:14:59;97128.56;;;6.34;100.00
57763;BME280;43592;42.524;12.052;2023-04-28T00:17:25;97124.44;;;6.27;100.00
57763;BME280;43592;42.524;12.052;2023-04-28T00:19:50;97126.13;;;6.23;100.00
57763;BME280;43592;42.524;12.052;2023-04-28T00:22:17;97129.06;;;6.22;100.00
57763;BME280;43592;42.524;12.052;2023-04-28T00:24:43;97137.03;;;6.22;100.00
57763;BME280;43592;42.524;12.052;2023-04-28T00:27:08;97145.03;;;6.22;100.00
57763;BME280;43592;42.524;12.052;2023-04-28T00:29:34;97129.06;;;6.22;100.00
57763;BME280;43592;42.524;12.052;2023-04-28T00:32:01;97130.16;;;6.21;100.00
57763;BME280;43592;42.524;12.052;2023-04-28T00:34:26;97120.59;;;6.20;100.00
57763;BME280;43592;42.524;12.052;2023-04-28T00:36:54;97125.91;;;6.20;100.00
57763;BME280;43592;42.524;12.052;2023-04-28T00:39:19;97123.56;;;6.18;100.00
57763;BME280;43592;42.524;12.052;2023-04-28T00:41:47;97119.91;;;6.14;100.00
57763;BME280;43592;42.524;12.052;2023-04-28T00:44:12;97113.66;;;6.10;100.00
57763;BME280;43592;42.524;12.052;2023-04-28T00:46:38;97119.06;;;6.05;100.00
57763;BME280;43592;42.524;12.052;2023-04-28T00:49:03;97117.59;;;5.99;100.00
57763;BME280;43592;42.524;12.052;2023-04-28T00:51:29;97122.72;;;5.95;100.00
57763;BME280;43592;42.524;12.052;2023-04-28T00:53:57;97122.72;;;5.95;100.00
57763;BME280;43592;42.524;12.052;2023-04-28T00:56:23;97123.56;;;5.91;100.00
57763;BME280;43592;42.524;12.052;2023-04-28T00:58:51;97127.00;;;5.91;100.00
57763;BME280;43592;42.524;12.052;2023-04-28T01:01:17;97123.56;;;5.91;100.00
57763;BME280;43592;42.524;12.052;2023-04-28T01:03:43;97119.03;;;5.91;100.00
57763;BME280;43592;42.524;12.052;2023-04-28T01:06:09;97123.50;;;5.96;100.00
57763;BME280;43592;42.524;12.052;2023-04-28T01:08:35;97127.44;;;5.98;100.00
57763;BME280;43592;42.524;12.052;2023-04-28T01:11:01;97133.03;;;5.97;100.00
57763;BME280;43592;42.524;12.052;2023-04-28T01:13:27;97129.09;;;5.94;100.00
57763;BME280;43592;42.524;12.052;2023-04-28T01:15:54;97122.28;;;5.88;100.00
57763;BME280;43592;42.524;12.052;2023-04-28T01:18:19;97132.72;;;5.84;100.00
57763;BME280;43592;42.524;12.052;2023-04-28T01:20:45;97130.66;;;5.81;100.00
57763;BME280;43592;42.524;12.052;2023-04-28T01:23:14;97133.00;;;5.83;100.00
57763;BME280;43592;42.524;12.052;2023-04-28T01:25:40;97131.34;;;5.87;100.00
57763;BME280;43592;42.524;12.052;2023-04-28T01:28:07;97134.91;;;5.96;100.00
57763;BME280;43592;42.524;12.052;2023-04-28T01:30:32;97139.03;;;6.02;100.00
57763;BME280;43592;42.524;12.052;2023-04-28T01:32:59;97142.09;;;6.10;100.00
57763;BME280;43592;42.524;12.052;2023-04-28T01:35:25;97136.53;;;6.20;100.00
57763;BME280;43592;42.524;12.052;2023-04-28T01:37:50;97144.41;;;6.25;100.00
57763;BME280;43592;42.524;12.052;2023-04-28T01:40:16;97134.28;;;6.27;100.00
57763;BME280;43592;42.524;12.052;2023-04-28T01:42:41;97143.81;;;6.28;100.00
57763;BME280;43592;42.524;12.052;2023-04-28T01:45:07;97138.03;;;6.26;100.00
57763;BME280;43592;42.524;12.052;2023-04-28T01:47:33;97131.91;;;6.25;100.00
57763;BME280;43592;42.524;12.052;2023-04-28T01:49:58;97140.47;;;6.22;100.00
57763;BME280;43592;42.524;12.052;2023-04-28T01:52:24;97145.03;;;6.22;100.00
57763;BME280;43592;42.524;12.052;2023-04-28T01:54:51;97145.13;;;6.17;100.00
57763;BME280;43592;42.524;12.052;2023-04-28T01:57:16;97143.66;;;6.11;100.00
57763;BME280;43592;42.524;12.052;2023-04-28T01:59:42;97139.84;;;6.03;100.00
57763;BME280;43592;42.524;12.052;2023-04-28T02:02:07;97139.94;;;5.98;100.00
57763;BME280;43592;42.524;12.052;2023-04-28T02:04:33;97145.31;;;5.93;100.00
57763;BME280;43592;42.524;12.052;2023-04-28T02:06:58;97148.19;;;5.96;100.00
57763;BME280;43592;42.524;12.052;2023-04-28T02:09:24;97145.53;;;5.96;100.00
57763;BME280;43592;42.524;12.052;2023-04-28T02:11:49;97151.72;;;5.92;100.00
57763;BME280;43592;42.524;12.052;2023-04-28T02:14:15;97149.94;;;5.87;100.00
57763;BME280;43592;42.524;12.052;2023-04-28T02:16:41;97151.72;;;5.78;100.00
57763;BME280;43592;42.524;12.052;2023-04-28T02:19:06;97150.53;;;5.70;100.00
57763;BME280;43592;42.524;12.052;2023-04-28T02:21:32;97155.66;;;5.67;100.00
57763;BME280;43592;42.524;12.052;2023-04-28T02:23:57;97155.66;;;5.67;100.00
57763;BME280;43592;42.524;12.052;2023-04-28T02:26:23;97156.44;;;5.67;100.00
57763;BME280;43592;42.524;12.052;2023-04-28T02:28:48;97159.69;;;5.64;100.00
57763;BME280;43592;42.524;12.052;2023-04-28T02:31:14;97164.00;;;5.60;100.00
57763;BME280;43592;42.524;12.052;2023-04-28T02:33:39;97169.41;;;5.55;100.00
57763;BME280;43592;42.524;12.052;2023-04-28T02:36:07;97167.91;;;5.49;100.00
57763;BME280;43592;42.524;12.052;2023-04-28T02:38:32;97160.34;;;5.42;100.00
57763;BME280;43592;42.524;12.052;2023-04-28T02:40:59;97166.81;;;5.36;100.00
57763;BME280;43592;42.524;12.052;2023-04-28T02:43:25;97158.94;;;5.31;100.00
57763;BME280;43592;42.524;12.052;2023-04-28T02:45:51;97158.44;;;5.29;100.00
57763;BME280;43592;42.524;12.052;2023-04-28T02:48:17;97153.72;;;5.26;100.00
57763;BME280;43592;42.524;12.052;2023-04-28T02:50:43;97156.38;;;5.26;100.00
57763;BME280;43592;42.524;12.052;2023-04-28T02:53:10;97150.28;;;5.25;100.00
57763;BME280;43592;42.524;12.052;2023-04-28T02:55:36;97156.09;;;5.27;100.00
57763;BME280;43592;42.524;12.052;2023-04-28T02:58:01;97152.84;;;5.30;100.00
57763;BME280;43592;42.524;12.052;2023-04-28T03:00:27;97145.38;;;5.32;100.00
57763;BME280;43592;42.524;12.052;2023-04-28T03:02:52;97152.53;;;5.32;100.00
57763;BME280;43592;42.524;12.052;2023-04-28T03:05:18;97148.03;;;5.32;100.00
57763;BME280;43592;42.524;12.052;2023-04-28T03:07:44;97146.75;;;5.30;100.00
57763;BME280;43592;42.524;12.052;2023-04-28T03:10:10;97156.38;;;5.26;100.00
57763;BME280;43592;42.524;12.052;2023-04-28T03:12:35;97152.72;;;5.22;100.00
57763;BME280;43592;42.524;12.052;2023-04-28T03:15:01;97157.84;;;5.18;100.00
57763;BME280;43592;42.524;12.052;2023-04-28T03:17:26;97155.75;;;5.15;100.00
57763;BME280;43592;42.524;12.052;2023-04-28T03:19:52;97152.91;;;5.11;100.00
57763;BME280;43592;42.524;12.052;2023-04-28T03:22:17;97153.97;;;5.10;100.00
57763;BME280;43592;42.524;12.052;2023-04-28T03:24:43;97162.22;;;5.09;100.00
57763;BME280;43592;42.524;12.052;2023-04-28T03:27:08;97160.84;;;5.11;100.00
57763;BME280;43592;42.524;12.052;2023-04-28T03:29:34;97159.78;;;5.12;100.00
57763;BME280;43592;42.524;12.052;2023-04-28T03:32:00;97156.06;;;5.13;100.00
57763;BME280;43592;42.524;12.052;2023-04-28T03:34:25;97166.34;;;5.15;100.00
57763;BME280;43592;42.524;12.052;2023-04-28T03:36:51;97170.28;;;5.17;100.00
57763;BME280;43592;42.524;12.052;2023-04-28T03:39:16;97168.16;;;5.20;100.00
57763;BME280;43592;42.524;12.052;2023-04-28T03:41:42;97167.88;;;5.21;100.00
57763;BME280;43592;42.524;12.052;2023-04-28T03:44:07;97161.97;;;5.24;100.00
57763;BME280;43592;42.524;12.052;2023-04-28T03:46:33;97163.25;;;5.27;100.00
57763;BME280;43592;42.524;12.052;2023-04-28T03:48:59;97162.19;;;5.28;100.00
57763;BME280;43592;42.524;12.052;2023-04-28T03:51:26;97164.25;;;5.31;100.00
57763;BME280;43592;42.524;12.052;2023-04-28T03:53:53;97161.66;;;5.26;100.00
57763;BME280;43592;42.524;12.052;2023-04-28T03:56:18;97165.00;;;5.17;100.00
57763;BME280;43592;42.524;12.052;2023-04-28T03:58:44;97160.66;;;5.08;100.00
57763;BME280;43592;42.524;12.052;2023-04-28T04:01:10;97154.13;;;5.00;100.00
57763;BME280;43592;42.524;12.052;2023-04-28T04:03:35;97160.22;;;5.01;100.00
57763;BME280;43592;42.524;12.052;2023-04-28T04:06:01;97157.00;;;5.04;100.00
57763;BME280;43592;42.524;12.052;2023-04-28T04:08:27;97160.44;;;5.04;100.00
57763;BME280;43592;42.524;12.052;2023-04-28T04:10:52;97152.50;;;5.04;100.00
57763;BME280;43592;42.524;12.052;2023-04-28T04:13:19;97155.41;;;5.03;100.00
57763;BME280;43592;42.524;12.052;2023-04-28T04:15:45;97170.56;;;5.02;100.00
57763;BME280;43592;42.524;12.052;2023-04-28T04:18:10;97161.31;;;5.00;100.00
57763;BME280;43592;42.524;12.052;2023-04-28T04:20:36;97171.13;;;4.99;100.00
57763;BME280;43592;42.524;12.052;2023-04-28T04:23:02;97166.88;;;4.98;100.00
57763;BME280;43592;42.524;12.052;2023-04-28T04:25:27;97173.00;;;4.99;100.00
57763;BME280;43592;42.524;12.052;2023-04-28T04:27:53;97168.50;;;4.99;100.00
57763;BME280;43592;42.524;12.052;2023-04-28T04:30:19;97173.22;;;5.02;100.00
57763;BME280;43592;42.524;12.052;2023-04-28T04:32:44;97173.41;;;5.06;100.00
57763;BME280;43592;42.524;12.052;2023-04-28T04:35:10;97174.63;;;5.13;100.00
57763;BME280;43592;42.524;12.052;2023-04-28T04:37:35;97177.69;;;5.21;100.00
57763;BME280;43592;42.524;12.052;2023-04-28T04:40:02;97181.63;;;5.23;100.00
57763;BME280;43592;42.524;12.052;2023-04-28T04:42:28;97178.47;;;5.21;100.00
57763;BME280;43592;42.524;12.052;2023-04-28T04:44:53;97182.97;;;5.21;100.00
57763;BME280;43592;42.524;12.052;2023-04-28T04:47:19;97185.63;;;5.21;100.00
57763;BME280;43592;42.524;12.052;2023-04-28T04:49:46;97196.16;;;5.26;100.00
57763;BME280;43592;42.524;12.052;2023-04-28T04:52:11;97187.28;;;5.35;100.00
57763;BME280;43592;42.524;12.052;2023-04-28T04:54:37;97193.75;;;5.43;100.00
57763;BME280;43592;42.524;12.052;2023-04-28T04:57:02;97188.88;;;5.50;100.00
57763;BME280;43592;42.524;12.052;2023-04-28T04:59:28;97202.44;;;5.62;100.00
57763;BME280;43592;42.524;12.052;2023-04-28T05:01:54;97204.75;;;5.69;100.00
57763;BME280;43592;42.524;12.052;2023-04-28T05:04:19;97207.00;;;5.76;100.00
57763;BME280;43592;42.524;12.052;2023-04-28T05:06:45;97209.84;;;5.79;100.00
57763;BME280;43592;42.524;12.052;2023-04-28T05:09:10;97192.53;;;5.82;100.00
57763;BME280;43592;42.524;12.052;2023-04-28T05:11:38;97200.09;;;5.89;100.00
57763;BME280;43592;42.524;12.052;2023-04-28T05:14:03;97205.28;;;5.99;100.00
57763;BME280;43592;42.524;12.052;2023-04-28T05:16:29;97214.63;;;6.10;100.00
57763;BME280;43592;42.524;12.052;2023-04-28T05:18:55;97221.81;;;6.23;100.00
57763;BME280;43592;42.524;12.052;2023-04-28T05:21:20;97221.81;;;6.37;100.00
57763;BME280;43592;42.524;12.052;2023-04-28T05:23:46;97220.97;;;6.50;100.00
57763;BME280;43592;42.524;12.052;2023-04-28T05:26:11;97220.78;;;6.61;100.00
57763;BME280;43592;42.524;12.052;2023-04-28T05:28:38;97220.25;;;6.72;100.00
57763;BME280;43592;42.524;12.052;2023-04-28T05:31:03;97205.97;;;6.82;100.00
57763;BME280;43592;42.524;12.052;2023-04-28T05:33:29;97210.25;;;6.92;100.00
57763;BME280;43592;42.524;12.052;2023-04-28T05:35:54;97210.81;;;7.03;100.00
57763;BME280;43592;42.524;12.052;2023-04-28T05:38:20;97211.38;;;7.13;100.00
57763;BME280;43592;42.524;12.052;2023-04-28T05:40:46;97208.63;;;7.27;100.00
57763;BME280;43592;42.524;12.052;2023-04-28T05:43:11;97209.81;;;7.43;100.00
57763;BME280;43592;42.524;12.052;2023-04-28T05:45:37;97204.13;;;7.59;100.00
57763;BME280;43592;42.524;12.052;2023-04-28T05:48:02;97214.09;;;7.76;100.00
57763;BME280;43592;42.524;12.052;2023-04-28T05:50:29;97201.00;;;7.97;100.00
57763;BME280;43592;42.524;12.052;2023-04-28T05:52:54;97217.69;;;8.20;100.00
57763;BME280;43592;42.524;12.052;2023-04-28T05:55:20;97225.63;;;8.42;100.00
57763;BME280;43592;42.524;12.052;2023-04-28T05:57:46;97219.56;;;8.68;100.00
57763;BME280;43592;42.524;12.052;2023-04-28T06:00:11;97221.16;;;8.95;100.00
57763;BME280;43592;42.524;12.052;2023-04-28T06:02:37;97209.84;;;9.24;100.00
57763;BME280;43592;42.524;12.052;2023-04-28T06:05:02;97213.53;;;9.66;100.00
57763;BME280;43592;42.524;12.052;2023-04-28T06:07:28;97214.69;;;10.63;100.00
57763;BME280;43592;42.524;12.052;2023-04-28T06:09:53;97216.44;;;11.88;98.39
57763;BME280;43592;42.524;12.052;2023-04-28T06:12:19;97210.91;;;13.23;87.34
57763;BME280;43592;42.524;12.052;2023-04-28T06:14:44;97212.69;;;14.55;78.45
57763;BME280;43592;42.524;12.052;2023-04-28T06:17:10;97213.66;;;15.79;69.42
57763;BME280;43592;42.524;12.052;2023-04-28T06:19:35;97228.34;;;16.77;66.53
57763;BME280;43592;42.524;12.052;2023-04-28T06:22:01;97220.00;;;17.54;62.36
57763;BME280;43592;42.524;12.052;2023-04-28T06:24:26;97225.53;;;17.98;62.48
57763;BME280;43592;42.524;12.052;2023-04-28T06:26:51;97227.50;;;18.56;60.92
57763;BME280;43592;42.524;12.052;2023-04-28T06:29:17;97231.25;;;18.93;61.59
57763;BME280;43592;42.524;12.052;2023-04-28T06:31:44;97232.28;;;19.58;58.38
57763;BME280;43592;42.524;12.052;2023-04-28T06:34:10;97248.34;;;20.13;55.25
57763;BME280;43592;42.524;12.052;2023-04-28T06:36:35;97243.69;;;20.71;51.93
57763;BME280;43592;42.524;12.052;2023-04-28T06:39:01;97238.13;;;21.14;50.90
57763;BME280;43592;42.524;12.052;2023-04-28T06:41:26;97245.78;;;21.51;50.43
57763;BME280;43592;42.524;12.052;2023-04-28T06:43:53;97245.19;;;21.92;48.71
57763;BME280;43592;42.524;12.052;2023-04-28T06:46:19;97231.38;;;22.17;46.36
57763;BME280;43592;42.524;12.052;2023-04-28T06:48:44;97237.91;;;22.34;47.19
57763;BME280;43592;42.524;12.052;2023-04-28T06:51:10;97234.13;;;22.17;44.93
57763;BME280;43592;42.524;12.052;2023-04-28T06:53:35;97238.78;;;22.20;46.57
57763;BME280;43592;42.524;12.052;2023-04-28T06:56:01;97244.41;;;21.91;41.69
57763;BME280;43592;42.524;12.052;2023-04-28T06:58:27;97253.25;;;22.06;44.78
57763;BME280;43592;42.524;12.052;2023-04-28T07:00:52;97249.34;;;22.11;45.76
57763;BME280;43592;42.524;12.052;2023-04-28T07:03:18;97250.88;;;22.12;43.65
57763;BME280;43592;42.524;12.052;2023-04-28T07:05:44;97255.84;;;22.28;43.21
57763;BME280;43592;42.524;12.052;2023-04-28T07:08:09;97252.56;;;22.51;44.76
57763;BME280;43592;42.524;12.052;2023-04-28T07:10:35;97257.53;;;22.63;42.27
57763;BME280;43592;42.524;12.052;2023-04-28T07:13:00;97260.00;;;22.88;43.71
57763;BME280;43592;42.524;12.052;2023-04-28T07:15:26;97257.88;;;23.06;41.52
57763;BME280;43592;42.524;12.052;2023-04-28T07:17:52;97262.84;;;23.15;42.26
57763;BME280;43592;42.524;12.052;2023-04-28T07:20:17;97262.84;;;23.19;41.05
57763;BME280;43592;42.524;12.052;2023-04-28T07:22:43;97269.13;;;23.16;40.92
57763;BME280;43592;42.524;12.052;2023-04-28T07:25:09;97266.22;;;23.30;40.86
57763;BME280;43592;42.524;12.052;2023-04-28T07:27:35;97262.69;;;23.29;40.02
57763;BME280;43592;42.524;12.052;2023-04-28T07:30:01;97264.84;;;22.73;34.63
57763;BME280;43592;42.524;12.052;2023-04-28T07:32:26;97257.44;;;22.74;37.12
57763;BME280;43592;42.524;12.052;2023-04-28T07:34:52;97256.47;;;22.91;39.08
57763;BME280;43592;42.524;12.052;2023-04-28T07:37:17;97259.94;;;22.95;38.63
57763;BME280;43592;42.524;12.052;2023-04-28T07:39:43;97263.94;;;22.83;37.09
57763;BME280;43592;42.524;12.052;2023-04-28T07:42:09;97268.25;;;22.84;36.84
57763;BME280;43592;42.524;12.052;2023-04-28T07:44:34;97267.97;;;22.72;39.52
57763;BME280;43592;42.524;12.052;2023-04-28T07:47:00;97271.75;;;22.81;41.18
57763;BME280;43592;42.524;12.052;2023-04-28T07:49:29;97270.28;;;23.15;40.76
57763;BME280;43592;42.524;12.052;2023-04-28T07:51:55;97268.69;;;23.51;38.45
57763;BME280;43592;42.524;12.052;2023-04-28T07:54:21;97262.03;;;23.87;38.62
57763;BME280;43592;42.524;12.052;2023-04-28T07:56:46;97254.41;;;24.25;36.77
57763;BME280;43592;42.524;12.052;2023-04-28T07:59:12;97258.03;;;23.91;34.50
57763;BME280;43592;42.524;12.052;2023-04-28T08:01:37;97254.22;;;23.85;35.37
57763;BME280;43592;42.524;12.052;2023-04-28T08:04:03;97248.16;;;24.25;36.27
57763;BME280;43592;42.524;12.052;2023-04-28T08:06:28;97255.53;;;24.55;34.19
57763;BME280;43592;42.524;12.052;2023-04-28T08:08:54;97246.75;;;24.87;35.55
57763;BME280;43592;42.524;12.052;2023-04-28T08:11:20;97251.56;;;25.03;30.49
57763;BME280;43592;42.524;12.052;2023-04-28T08:13:46;97254.63;;;25.05;30.92
57763;BME280;43592;42.524;12.052;2023-04-28T08:16:13;97251.97;;;25.01;30.47
57763;BME280;43592;42.524;12.052;2023-04-28T08:18:39;97253.28;;;24.93;33.31
57763;BME280;43592;42.524;12.052;2023-04-28T08:21:05;97256.88;;;24.90;30.68
57763;BME280;43592;42.524;12.052;2023-04-28T08:23:30;97256.66;;;25.01;29.26
57763;BME280;43592;42.524;12.052;2023-04-28T08:25:56;97254.28;;;25.03;29.68
57763;BME280;43592;42.524;12.052;2023-04-28T08:28:21;97244.72;;;25.15;30.38
57763;BME280;43592;42.524;12.052;2023-04-28T08:30:47;97244.84;;;25.27;30.92
57763;BME280;43592;42.524;12.052;2023-04-28T08:33:12;97238.50;;;25.30;32.13
57763;BME280;43592;42.524;12.052;2023-04-28T08:35:38;97247.25;;;25.25;31.89
57763;BME280;43592;42.524;12.052;2023-04-28T08:38:04;97253.84;;;25.04;29.77
57763;BME280;43592;42.524;12.052;2023-04-28T08:40:30;97253.44;;;25.06;30.39
57763;BME280;43592;42.524;12.052;2023-04-28T08:42:55;97249.88;;;25.09;30.74
57763;BME280;43592;42.524;12.052;2023-04-28T08:45:22;97260.66;;;24.96;30.22
57763;BME280;43592;42.524;12.052;2023-04-28T08:47:48;97252.88;;;24.71;31.70
57763;BME280;43592;42.524;12.052;2023-04-28T08:50:13;97252.38;;;24.80;33.26
57763;BME280;43592;42.524;12.052;2023-04-28T08:52:40;97237.06;;;24.35;30.65
57763;BME280;43592;42.524;12.052;2023-04-28T08:55:07;97244.78;;;23.90;29.99
57763;BME280;43592;42.524;12.052;2023-04-28T08:57:37;97238.09;;;23.64;32.45
57763;BME280;43592;42.524;12.052;2023-04-28T09:00:03;97238.91;;;23.61;34.15
57763;BME280;43592;42.524;12.052;2023-04-28T09:02:29;97244.34;;;23.64;31.03
57763;BME280;43592;42.524;12.052;2023-04-28T09:04:55;97249.19;;;23.84;31.23
57763;BME280;43592;42.524;12.052;2023-04-28T09:07:20;97247.38;;;23.70;30.86
57763;BME280;43592;42.524;12.052;2023-04-28T09:09:46;97253.13;;;23.48;31.74
57763;BME280;43592;42.524;12.052;2023-04-28T09:12:11;97244.72;;;23.63;34.72
57763;BME280;43592;42.524;12.052;2023-04-28T09:14:37;97244.03;;;23.59;32.20
57763;BME280;43592;42.524;12.052;2023-04-28T09:17:08;97247.34;;;23.73;31.57
57763;BME280;43592;42.524;12.052;2023-04-28T09:19:35;97247.06;;;23.95;32.91
57763;BME280;43592;42.524;12.052;2023-04-28T09:22:01;97250.91;;;23.70;31.65
57763;BME280;43592;42.524;12.052;2023-04-28T09:24:31;97252.25;;;23.55;33.59
57763;BME280;43592;42.524;12.052;2023-04-28T09:26:57;97254.94;;;23.59;33.45
57763;BME280;43592;42.524;12.052;2023-04-28T09:29:23;97252.97;;;23.28;35.53
57763;BME280;43592;42.524;12.052;2023-04-28T09:31:49;97251.72;;;23.02;35.05
57763;BME280;43592;42.524;12.052;2023-04-28T09:34:14;97261.38;;;22.17;35.48
57763;BME280;43592;42.524;12.052;2023-04-28T09:36:40;97261.38;;;22.13;35.97
57763;BME280;43592;42.524;12.052;2023-04-28T09:39:06;97251.34;;;22.03;35.63
57763;BME280;43592;42.524;12.052;2023-04-28T09:41:41;97254.63;;;22.36;36.44
57763;BME280;43592;42.524;12.052;2023-04-28T09:44:14;97249.09;;;22.47;34.86
57763;BME280;43592;42.524;12.052;2023-04-28T09:46:40;97257.81;;;22.27;36.16
57763;BME280;43592;42.524;12.052;2023-04-28T09:49:06;97246.59;;;22.63;34.06
57763;BME280;43592;42.524;12.052;2023-04-28T09:51:32;97245.16;;;22.51;34.14
57763;BME280;43592;42.524;12.052;2023-04-28T09:53:59;97246.38;;;21.87;35.17
57763;BME280;43592;42.524;12.052;2023-04-28T09:56:27;97244.44;;;21.84;37.22
57763;BME280;43592;42.524;12.052;2023-04-28T09:58:53;97243.88;;;22.18;36.14
57763;BME280;43592;42.524;12.052;2023-04-28T10:01:21;97245.34;;;22.26;39.35
57763;BME280;43592;42.524;12.052;2023-04-28T10:03:46;97234.97;;;22.07;38.49
57763;BME280;43592;42.524;12.052;2023-04-28T10:06:13;97245.91;;;21.96;40.55
57763;BME280;43592;42.524;12.052;2023-04-28T10:08:38;97242.66;;;22.23;38.26
57763;BME280;43592;42.524;12.052;2023-04-28T10:11:05;97244.81;;;21.90;39.25
57763;BME280;43592;42.524;12.052;2023-04-28T10:13:31;97242.66;;;22.23;41.89
57763;BME280;43592;42.524;12.052;2023-04-28T10:15:56;97242.50;;;21.85;40.04
57763;BME280;43592;42.524;12.052;2023-04-28T10:18:22;97237.47;;;21.83;42.00
57763;BME280;43592;42.524;12.052;2023-04-28T10:20:49;97229.84;;;22.12;43.37
57763;BME280;43592;42.524;12.052;2023-04-28T10:23:35;97241.00;;;22.36;42.61
57763;BME280;43592;42.524;12.052;2023-04-28T10:26:04;97231.47;;;23.00;45.68
57763;BME280;43592;42.524;12.052;2023-04-28T10:28:34;97227.09;;;23.06;43.62
57763;BME280;43592;42.524;12.052;2023-04-28T10:31:13;97223.53;;;23.43;44.45
57763;BME280;43592;42.524;12.052;2023-04-28T10:33:39;97221.28;;;23.65;44.40
57763;BME280;43592;42.524;12.052;2023-04-28T10:36:05;97238.50;;;23.93;45.65
57763;BME280;43592;42.524;12.052;2023-04-28T10:38:31;97220.91;;;24.21;44.57
57763;BME280;43592;42.524;12.052;2023-04-28T10:40:57;97216.13;;;24.25;43.82
57763;BME280;43592;42.524;12.052;2023-04-28T10:56:21;97214.66;;;23.93;46.14
57763;BME280;43592;42.524;12.052;2023-04-28T10:58:49;97209.41;;;24.06;45.39
57763;BME280;43592;42.524;12.052;2023-04-28T11:03:50;97199.09;;;23.90;45.45
57763;BME280;43592;42.524;12.052;2023-04-28T11:06:19;97195.44;;;24.01;45.77
57763;BME280;43592;42.524;12.052;2023-04-28T11:08:46;97197.66;;;24.09;47.61
57763;BME280;43592;42.524;12.052;2023-04-28T11:11:13;97198.41;;;24.33;47.18
57763;BME280;43592;42.524;12.052;2023-04-28T11:13:39;97208.44;;;24.40;47.25
57763;BME280;43592;42.524;12.052;2023-04-28T11:16:05;97214.50;;;24.04;47.69
57763;BME280;43592;42.524;12.052;2023-04-28T11:18:52;97205.31;;;23.64;48.29
57763;BME280;43592;42.524;12.052;2023-04-28T11:21:17;97207.00;;;23.23;48.07
57763;BME280;43592;42.524;12.052;2023-04-28T11:23:43;97200.00;;;23.22;49.69
57763;BME280;43592;42.524;12.052;2023-04-28T11:26:09;97197.81;;;23.10;49.62
57763;BME280;43592;42.524;12.052;2023-04-28T11:28:34;97191.34;;;22.93;48.22
57763;BME280;43592;42.524;12.052;2023-04-28T11:31:11;97200.25;;;23.01;51.59
57763;BME280;43592;42.524;12.052;2023-04-28T11:33:37;97200.81;;;23.19;49.64
57763;BME280;43592;42.524;12.052;2023-04-28T11:36:03;97185.56;;;23.52;51.02
57763;BME280;43592;42.524;12.052;2023-04-28T11:38:29;97194.72;;;23.08;49.73
57763;BME280;43592;42.524;12.052;2023-04-28T11:40:57;97194.97;;;22.83;49.65
57763;BME280;43592;42.524;12.052;2023-04-28T11:43:29;97191.94;;;22.74;48.97
57763;BME280;43592;42.524;12.052;2023-04-28T11:45:54;97192.91;;;22.56;51.18
57763;BME280;43592;42.524;12.052;2023-04-28T11:48:21;97194.50;;;22.54;52.40
57763;BME280;43592;42.524;12.052;2023-04-28T11:50:46;97191.75;;;22.54;52.53
57763;BME280;43592;42.524;12.052;2023-04-28T11:53:12;97193.22;;;22.21;52.30
57763;BME280;43592;42.524;12.052;2023-04-28T11:55:37;97197.88;;;22.24;51.05
57763;BME280;43592;42.524;12.052;2023-04-28T11:58:19;97191.22;;;22.25;52.64
57763;BME280;43592;42.524;12.052;2023-04-28T12:01:05;97185.97;;;21.96;52.13
57763;BME280;43592;42.524;12.052;2023-04-28T12:03:31;97190.47;;;22.24;53.76
57763;BME280;43592;42.524;12.052;2023-04-28T12:05:56;97174.78;;;22.35;51.01
57763;BME280;43592;42.524;12.052;2023-04-28T12:08:28;97183.59;;;22.54;50.84
57763;BME280;43592;42.524;12.052;2023-04-28T12:11:06;97177.13;;;22.75;51.92
57763;BME280;43592;42.524;12.052;2023-04-28T12:13:32;97173.19;;;22.76;53.12
57763;BME280;43592;42.524;12.052;2023-04-28T12:15:57;97183.69;;;23.19;53.50
57763;BME280;43592;42.524;12.052;2023-04-28T12:18:26;97175.31;;;23.33;48.95
57763;BME280;43592;42.524;12.052;2023-04-28T12:20:51;97167.09;;;23.33;48.54
57763;BME280;43592;42.524;12.052;2023-04-28T12:23:30;97172.97;;;23.31;51.24
57763;BME280;43592;42.524;12.052;2023-04-28T12:25:56;97172.16;;;23.35;49.08
57763;BME280;43592;42.524;12.052;2023-04-28T12:28:23;97168.69;;;23.61;50.86
57763;BME280;43592;42.524;12.052;2023-04-28T12:30:49;97168.38;;;23.25;50.13
57763;BME280;43592;42.524;12.052;2023-04-28T12:33:22;97161.25;;;23.62;50.22
57763;BME280;43592;42.524;12.052;2023-04-28T12:35:48;97156.28;;;23.84;48.06
57763;BME280;43592;42.524;12.052;2023-04-28T12:38:14;97164.63;;;23.73;49.83
57763;BME280;43592;42.524;12.052;2023-04-28T12:40:40;97165.56;;;23.86;47.67
57763;BME280;43592;42.524;12.052;2023-04-28T12:43:05;97168.31;;;23.86;47.05
57763;BME280;43592;42.524;12.052;2023-04-28T12:45:31;97159.22;;;23.66;50.47
57763;BME280;43592;42.524;12.052;2023-04-28T12:47:56;97162.59;;;23.50;49.42
57763;BME280;43592;42.524;12.052;2023-04-28T12:50:22;97154.72;;;23.25;48.46
57763;BME280;43592;42.524;12.052;2023-04-28T12:52:48;97159.31;;;23.01;49.36
57763;BME280;43592;42.524;12.052;2023-04-28T12:55:14;97155.00;;;23.03;50.22
57763;BME280;43592;42.524;12.052;2023-04-28T12:57:39;97152.06;;;23.21;52.56
57763;BME280;43592;42.524;12.052;2023-04-28T13:00:05;97152.84;;;23.18;50.21